Time;durP1;ratioP1;P1;durP2;ratioP2;P2;SDS_P1;SDS_P2;PMS_P1;PMS_P2;Temp;Humidity;BMP_temperature;BMP_pressure;BME280_temperature;BME280_humidity;BME280_pressure;Samples;Min_cycle;Max_cycle;Signal;HPM_P1;HPM_P2
2023/02/28 00:00:24;;;;;;;6.47;2.17;;;0.70;99.90;;;;;;5073516;28;20030;-65
2023/02/28 00:02:50;;;;;;;5.30;2.47;;;0.60;99.90;;;;;;5073446;28;20471;-64
2023/02/28 00:05:19;;;;;;;4.63;2.85;;;0.50;99.90;;;;;;5073538;28;20111;-65
2023/02/28 00:07:46;;;;;;;3.78;2.15;;;0.40;99.90;;;;;;5072232;28;20024;-65
2023/02/28 00:10:14;;;;;;;4.00;1.98;;;0.40;99.90;;;;;;5073295;28;20110;-65
2023/02/28 00:12:40;;;;;;;4.15;2.30;;;0.30;99.90;;;;;;5073121;28;20051;-65
2023/02/28 00:15:08;;;;;;;4.38;2.40;;;0.20;99.90;;;;;;5073441;28;20075;-64
2023/02/28 00:17:33;;;;;;;2.80;2.25;;;0.10;99.90;;;;;;5072873;28;20048;-64
2023/02/28 00:20:11;;;;;;;7.25;2.47;;;0.00;99.90;;;;;;5072956;28;20017;-64
2023/02/28 00:22:38;;;;;;;4.32;2.47;;;-0.10;99.90;;;;;;5073388;28;20021;-64
2023/02/28 00:25:04;;;;;;;2.22;1.85;;;-0.10;99.90;;;;;;5073006;28;20440;-64
2023/02/28 00:27:30;;;;;;;4.03;2.33;;;-0.30;99.90;;;;;;5073140;28;20029;-64
2023/02/28 00:29:56;;;;;;;4.30;2.30;;;-0.40;99.90;;;;;;5073236;28;20524;-64
2023/02/28 00:32:21;;;;;;;3.42;2.38;;;-0.50;99.90;;;;;;5072951;28;20115;-65
2023/02/28 00:34:47;;;;;;;3.15;2.10;;;-0.60;99.90;;;;;;5073023;28;20056;-64
2023/02/28 00:37:13;;;;;;;4.88;2.17;;;-0.80;99.90;;;;;;5072891;28;20032;-64
2023/02/28 00:39:39;;;;;;;4.40;2.42;;;-0.90;99.90;;;;;;5074789;28;20024;-64
2023/02/28 00:42:06;;;;;;;4.13;2.70;;;-0.90;99.90;;;;;;5077342;28;20066;-64
2023/02/28 00:44:32;;;;;;;4.03;2.20;;;-1.00;99.90;;;;;;5076882;28;20031;-64
2023/02/28 00:46:59;;;;;;;4.82;2.53;;;-1.00;99.90;;;;;;5077034;28;20032;-64
2023/02/28 00:49:26;;;;;;;6.78;2.92;;;-0.80;99.90;;;;;;5076657;28;20075;-65
2023/02/28 00:51:52;;;;;;;3.65;2.45;;;-0.80;99.90;;;;;;5076908;28;20058;-64
2023/02/28 00:54:18;;;;;;;3.22;2.40;;;-0.50;99.90;;;;;;5075414;28;20029;-64
2023/02/28 00:56:45;;;;;;;5.13;2.40;;;-0.40;99.90;;;;;;5076705;28;20039;-64
2023/02/28 00:59:11;;;;;;;4.30;2.80;;;-0.20;99.90;;;;;;5076558;28;20115;-65
2023/02/28 01:01:37;;;;;;;6.30;3.38;;;0.00;99.90;;;;;;5075507;28;20425;-64
2023/02/28 01:04:03;;;;;;;6.50;3.33;;;0.10;99.90;;;;;;5076518;28;20074;-64
2023/02/28 01:06:28;;;;;;;5.60;2.83;;;0.10;99.90;;;;;;5076223;28;20028;-64
2023/02/28 01:08:54;;;;;;;4.97;2.63;;;0.10;99.90;;;;;;5076617;28;20024;-65
2023/02/28 01:11:19;;;;;;;7.15;2.63;;;0.10;99.90;;;;;;5076640;28;20028;-64
2023/02/28 01:13:46;;;;;;;5.63;2.30;;;0.10;99.90;;;;;;5076547;28;20025;-65
2023/02/28 01:16:13;;;;;;;5.82;2.97;;;0.10;99.90;;;;;;5076396;28;20446;-65
2023/02/28 01:18:39;;;;;;;4.80;2.88;;;-0.10;99.90;;;;;;5075850;28;20040;-64
2023/02/28 01:21:05;;;;;;;7.53;3.35;;;-0.30;99.90;;;;;;5076366;28;20044;-64
2023/02/28 01:23:31;;;;;;;9.90;3.33;;;-0.60;99.90;;;;;;5076362;28;20032;-64
2023/02/28 01:25:57;;;;;;;6.75;3.60;;;-0.80;99.90;;;;;;5076080;28;20025;-64
2023/02/28 01:28:23;;;;;;;6.35;3.20;;;-1.00;99.90;;;;;;5076115;28;20028;-64
2023/02/28 01:30:50;;;;;;;10.18;3.50;;;-1.10;99.90;;;;;;5076189;28;20033;-64
2023/02/28 01:33:15;;;;;;;7.95;3.40;;;-1.20;99.90;;;;;;5075786;28;20115;-64
2023/02/28 01:35:41;;;;;;;6.00;3.47;;;-1.30;99.90;;;;;;5076232;28;20071;-65
2023/02/28 01:38:06;;;;;;;11.38;4.03;;;-1.40;99.90;;;;;;5075918;28;20029;-64
2023/02/28 01:40:32;;;;;;;7.50;3.35;;;-1.40;99.90;;;;;;5055828;28;20021;-64
2023/02/28 01:42:58;;;;;;;6.22;3.30;;;-1.40;99.90;;;;;;5055828;28;20071;-64
2023/02/28 01:45:28;;;;;;;7.63;3.17;;;-1.40;99.90;;;;;;5055811;28;20435;-64
2023/02/28 01:48:00;;;;;;;6.30;3.05;;;-1.40;99.90;;;;;;5054645;28;20390;-64
2023/02/28 01:50:30;;;;;;;5.63;2.88;;;-1.50;99.90;;;;;;5055284;28;20040;-64
2023/02/28 01:53:00;;;;;;;5.18;2.83;;;-1.50;99.90;;;;;;5054676;28;20505;-64
2023/02/28 01:55:28;;;;;;;5.85;3.10;;;-1.50;99.90;;;;;;5055742;28;20086;-64
2023/02/28 01:57:58;;;;;;;5.20;3.00;;;-1.50;99.90;;;;;;5055484;28;20516;-65
2023/02/28 02:00:27;;;;;;;5.07;3.08;;;-1.60;99.90;;;;;;5055681;28;20029;-64
2023/02/28 02:02:57;;;;;;;6.88;3.05;;;-1.60;99.90;;;;;;5055447;28;20025;-64
2023/02/28 02:05:25;;;;;;;4.00;3.05;;;-1.70;99.90;;;;;;5055394;28;20017;-64
2023/02/28 02:07:56;;;;;;;5.43;3.00;;;-1.70;99.90;;;;;;5054419;28;20029;-65
2023/02/28 02:10:34;;;;;;;6.57;3.65;;;-1.70;99.90;;;;;;5055353;28;20025;-65
2023/02/28 02:16:02;;;;;;;6.65;3.60;;;-1.80;99.90;;;;;;5090889;28;20865;-65
2023/02/28 02:18:52;;;;;;;4.72;3.13;;;-1.80;99.90;;;;;;5090324;28;20028;-65
2023/02/28 02:21:57;;;;;;;4.35;2.70;;;-1.90;99.90;;;;;;5090820;28;20077;-65
2023/02/28 02:24:51;;;;;;;6.93;3.40;;;-2.00;99.90;;;;;;5090238;28;20032;-65
2023/02/28 02:27:36;;;;;;;6.43;2.92;;;-2.10;99.90;;;;;;5090687;28;20077;-65
2023/02/28 02:30:18;;;;;;;5.22;3.08;;;-2.10;99.90;;;;;;5090526;28;20040;-65
2023/02/28 02:33:10;;;;;;;4.97;3.30;;;-2.10;99.90;;;;;;5090681;28;20032;-65
2023/02/28 02:36:00;;;;;;;4.78;2.90;;;-2.30;99.90;;;;;;5090445;28;20481;-65
2023/02/28 02:38:38;;;;;;;6.10;2.92;;;-2.40;99.90;;;;;;5070103;28;20111;-65
2023/02/28 02:41:26;;;;;;;5.20;3.20;;;-2.30;99.90;;;;;;5069854;28;20033;-65
2023/02/28 02:44:02;;;;;;;6.65;4.15;;;-2.30;99.90;;;;;;5069190;28;20078;-65
2023/02/28 02:46:33;;;;;;;6.35;3.05;;;-2.00;99.90;;;;;;5069962;28;20032;-65
2023/02/28 02:49:03;;;;;;;5.45;3.00;;;-1.80;99.90;;;;;;5070166;28;20029;-65
2023/02/28 02:51:32;;;;;;;3.35;2.70;;;-1.70;99.90;;;;;;5070057;28;20040;-65
2023/02/28 02:54:07;;;;;;;6.68;3.10;;;-1.50;99.90;;;;;;5069956;28;20048;-65
2023/02/28 02:56:35;;;;;;;4.97;2.80;;;-1.40;99.90;;;;;;5069960;28;20113;-65
2023/02/28 02:59:04;;;;;;;5.18;2.90;;;-1.30;99.90;;;;;;5068798;28;20051;-65
2023/02/28 03:01:31;;;;;;;5.40;3.03;;;-1.20;99.90;;;;;;5069682;28;20104;-65
2023/02/28 03:04:00;;;;;;;5.63;2.60;;;-1.20;99.90;;;;;;5069860;28;20025;-65
2023/02/28 03:06:26;;;;;;;4.38;2.50;;;-1.10;99.90;;;;;;5069801;28;20079;-65
2023/02/28 03:08:52;;;;;;;7.07;3.45;;;-1.00;99.90;;;;;;5068530;28;20028;-65
2023/02/28 03:11:20;;;;;;;13.43;3.90;;;-1.10;99.90;;;;;;5069505;28;20509;-65
2023/02/28 03:14:19;;;;;;;7.13;3.00;;;-1.10;99.90;;;;;;5069254;28;20052;-65
2023/02/28 03:17:24;;;;;;;9.50;3.63;;;-1.00;99.90;;;;;;5069180;28;20021;-66
2023/02/28 03:20:06;;;;;;;5.32;3.03;;;-1.00;99.90;;;;;;5069151;28;20029;-65
2023/02/28 03:22:56;;;;;;;7.25;3.80;;;-1.10;99.90;;;;;;5069322;28;20383;-65
2023/02/28 03:25:51;;;;;;;7.15;3.47;;;-1.10;99.90;;;;;;5064848;28;20074;-65
2023/02/28 03:28:45;;;;;;;4.00;2.92;;;-1.10;99.90;;;;;;5056217;28;20032;-65
2023/02/28 03:31:18;;;;;;;5.15;3.65;;;-1.00;99.90;;;;;;5056043;28;20063;-65
2023/02/28 03:33:59;;;;;;;5.72;3.00;;;-0.90;99.90;;;;;;5055601;28;20033;-66
2023/02/28 03:36:29;;;;;;;9.48;3.30;;;-0.80;99.90;;;;;;5056018;28;20111;-65
2023/02/28 03:39:02;;;;;;;6.35;2.75;;;-0.80;99.90;;;;;;5055953;28;20360;-65
2023/02/28 03:41:38;;;;;;;6.20;3.15;;;-0.70;99.90;;;;;;5055696;28;20045;-65
2023/02/28 03:44:15;;;;;;;5.55;3.28;;;-0.70;99.90;;;;;;5055622;28;20037;-65
2023/02/28 03:46:45;;;;;;;8.20;4.25;;;-0.70;99.90;;;;;;5055516;28;20029;-65
2023/02/28 03:49:20;;;;;;;6.20;3.42;;;-0.70;99.90;;;;;;5055694;28;20040;-65
2023/02/28 03:51:46;;;;;;;9.80;4.50;;;-0.80;99.90;;;;;;5055693;28;20039;-65
2023/02/28 03:54:34;;;;;;;6.03;3.55;;;-0.90;99.90;;;;;;5055588;28;20037;-65
2023/02/28 03:57:05;;;;;;;7.53;3.70;;;-0.90;99.90;;;;;;5055287;28;20036;-65
2023/02/28 03:59:39;;;;;;;8.25;4.20;;;-0.90;99.90;;;;;;5055312;28;20025;-65
2023/02/28 04:02:05;;;;;;;7.15;3.58;;;-0.90;99.90;;;;;;5055266;28;20025;-65
2023/02/28 04:04:31;;;;;;;6.35;3.60;;;-1.00;99.90;;;;;;5055043;28;20071;-65
2023/02/28 04:07:07;;;;;;;6.43;3.38;;;-1.00;99.90;;;;;;5055236;28;20047;-65
2023/02/28 04:09:33;;;;;;;5.93;3.15;;;-0.90;99.90;;;;;;5055342;28;20487;-65
2023/02/28 04:11:59;;;;;;;5.85;3.17;;;-0.90;99.90;;;;;;5055114;28;20032;-65
2023/02/28 04:14:24;;;;;;;6.00;3.08;;;-1.00;99.90;;;;;;5054820;28;20399;-65
2023/02/28 04:16:51;;;;;;;7.05;3.25;;;-1.10;99.90;;;;;;5055301;28;20067;-65
2023/02/28 04:19:16;;;;;;;5.22;3.05;;;-1.10;99.90;;;;;;5055316;28;20492;-65
2023/02/28 04:21:45;;;;;;;6.18;3.28;;;-1.00;99.90;;;;;;5055065;28;20108;-65
2023/02/28 04:24:14;;;;;;;7.53;3.85;;;-0.90;99.90;;;;;;5055015;28;20024;-65
2023/02/28 04:26:43;;;;;;;8.95;3.78;;;-0.90;99.90;;;;;;5054861;28;20082;-65
2023/02/28 04:29:09;;;;;;;13.85;4.70;;;-0.90;99.90;;;;;;5054964;28;20109;-65
2023/02/28 04:31:35;;;;;;;6.80;3.88;;;-1.00;99.90;;;;;;5054787;28;20115;-65
2023/02/28 04:34:01;;;;;;;8.02;4.32;;;-1.00;99.90;;;;;;5054768;28;20111;-65
2023/02/28 04:36:28;;;;;;;8.25;3.45;;;-1.00;99.90;;;;;;5054419;28;20025;-66
2023/02/28 04:38:54;;;;;;;9.75;3.78;;;-1.00;99.90;;;;;;5053824;28;20021;-65
2023/02/28 04:41:20;;;;;;;7.15;4.43;;;-1.00;99.90;;;;;;5054725;28;20505;-65
2023/02/28 04:43:45;;;;;;;8.52;4.35;;;-1.10;99.90;;;;;;5054557;28;20025;-65
2023/02/28 04:46:11;;;;;;;7.68;4.47;;;-1.10;99.90;;;;;;5054456;28;20029;-65
2023/02/28 04:48:38;;;;;;;10.13;3.80;;;-1.00;99.90;;;;;;5054524;28;20439;-65
2023/02/28 04:51:07;;;;;;;10.77;4.68;;;-1.00;99.90;;;;;;5054552;28;20025;-65
2023/02/28 04:53:34;;;;;;;7.93;4.35;;;-1.00;99.90;;;;;;5054537;28;20411;-66
2023/02/28 04:56:00;;;;;;;7.95;4.65;;;-1.00;99.90;;;;;;5054300;28;20128;-64
2023/02/28 04:58:26;;;;;;;6.50;4.85;;;-1.10;99.90;;;;;;5054275;28;20033;-65
2023/02/28 05:00:52;;;;;;;6.32;4.35;;;-1.30;99.90;;;;;;5054259;28;20025;-65
2023/02/28 05:03:18;;;;;;;10.32;4.90;;;-1.50;99.90;;;;;;5053200;28;20029;-65
2023/02/28 05:05:44;;;;;;;8.90;5.10;;;-1.80;99.90;;;;;;5054370;28;20021;-66
2023/02/28 05:08:10;;;;;;;12.38;5.07;;;-2.10;99.90;;;;;;5054226;28;20104;-65
2023/02/28 05:10:36;;;;;;;8.95;4.72;;;-2.30;99.90;;;;;;5054139;28;20040;-65
2023/02/28 05:13:01;;;;;;;14.18;4.80;;;-2.40;99.90;;;;;;5053957;28;20491;-65
2023/02/28 05:15:27;;;;;;;13.05;5.57;;;-2.40;99.90;;;;;;5053680;28;20041;-64
2023/02/28 05:17:52;;;;;;;7.55;4.05;;;-2.40;99.90;;;;;;5053613;28;20025;-65
2023/02/28 05:20:18;;;;;;;6.95;3.85;;;-2.00;99.90;;;;;;5054120;28;20029;-64
2023/02/28 05:22:44;;;;;;;5.13;3.38;;;-1.50;99.90;;;;;;5054031;28;20142;-64
2023/02/28 05:25:15;;;;;;;7.45;3.78;;;-1.40;99.90;;;;;;5054047;28;20434;-64
2023/02/28 05:27:41;;;;;;;10.43;4.10;;;-1.30;99.90;;;;;;5053843;28;20051;-64
2023/02/28 05:30:10;;;;;;;5.85;3.70;;;-1.30;99.90;;;;;;5053649;28;20029;-64
2023/02/28 05:32:42;;;;;;;7.05;3.55;;;-1.20;99.90;;;;;;5053741;28;20037;-64
2023/02/28 05:35:09;;;;;;;7.45;4.47;;;-1.10;99.90;;;;;;5053264;28;20029;-65
2023/02/28 05:37:34;;;;;;;8.48;4.20;;;-1.20;99.90;;;;;;5052526;28;20033;-64
2023/02/28 05:40:00;;;;;;;8.43;4.18;;;-1.20;99.90;;;;;;5053629;28;20040;-64
2023/02/28 05:42:25;;;;;;;10.63;4.53;;;-1.20;99.90;;;;;;5053625;28;20029;-65
2023/02/28 05:44:51;;;;;;;5.65;3.55;;;-1.10;99.90;;;;;;5053639;28;20123;-64
2023/02/28 05:47:17;;;;;;;5.63;4.05;;;-1.10;99.90;;;;;;5053442;28;20479;-64
2023/02/28 05:49:43;;;;;;;7.82;4.38;;;-1.20;99.90;;;;;;5053242;28;20036;-64
2023/02/28 05:52:08;;;;;;;10.23;4.30;;;-1.10;99.90;;;;;;5053170;28;20033;-65
2023/02/28 05:54:34;;;;;;;8.68;4.68;;;-1.20;99.90;;;;;;5053106;28;20033;-64
2023/02/28 05:56:59;;;;;;;10.02;3.88;;;-1.20;99.90;;;;;;5053191;28;20107;-65
2023/02/28 05:59:25;;;;;;;7.65;4.38;;;-1.10;99.90;;;;;;5053206;28;20063;-64
2023/02/28 06:01:52;;;;;;;5.82;4.10;;;-1.20;99.90;;;;;;5053212;28;20021;-65
2023/02/28 06:04:19;;;;;;;8.45;4.18;;;-1.20;99.90;;;;;;5052985;28;20025;-65
2023/02/28 06:06:46;;;;;;;6.70;4.35;;;-1.20;99.90;;;;;;5053012;28;20364;-66
2023/02/28 06:09:12;;;;;;;9.20;5.13;;;-1.10;99.90;;;;;;5053257;28;20371;-64
2023/02/28 06:11:37;;;;;;;5.90;4.47;;;-1.10;99.90;;;;;;5052949;28;20085;-64
2023/02/28 06:14:04;;;;;;;6.15;4.40;;;-1.10;99.90;;;;;;5052911;28;20057;-64
2023/02/28 06:16:31;;;;;;;9.82;4.88;;;-1.20;99.90;;;;;;5053199;28;20123;-64
2023/02/28 06:18:58;;;;;;;11.57;4.43;;;-1.20;99.90;;;;;;5053027;28;20074;-64
2023/02/28 06:21:24;;;;;;;8.13;4.53;;;-1.20;99.90;;;;;;5053147;28;20567;-65
2023/02/28 06:23:50;;;;;;;9.35;4.35;;;-1.30;99.90;;;;;;5053207;28;20115;-64
2023/02/28 06:26:16;;;;;;;6.10;4.35;;;-1.30;99.90;;;;;;5053059;28;20033;-65
2023/02/28 06:28:42;;;;;;;10.00;4.43;;;-1.20;99.90;;;;;;5052787;28;20033;-64
2023/02/28 06:31:09;;;;;;;8.48;4.40;;;-1.30;99.90;;;;;;5053025;28;20028;-64
2023/02/28 06:33:36;;;;;;;7.88;5.18;;;-1.30;99.90;;;;;;5052757;28;20021;-64
2023/02/28 06:36:02;;;;;;;7.18;4.88;;;-1.20;99.90;;;;;;5052808;28;20364;-64
2023/02/28 06:38:27;;;;;;;12.15;5.22;;;-1.20;99.90;;;;;;5053072;28;20052;-65
2023/02/28 06:40:55;;;;;;;8.23;5.65;;;-1.20;99.90;;;;;;5053065;28;20021;-64
2023/02/28 06:43:21;;;;;;;10.32;5.88;;;-1.20;99.90;;;;;;5052839;28;20360;-65
2023/02/28 06:45:46;;;;;;;9.60;5.38;;;-1.20;99.90;;;;;;5052616;28;20079;-65
2023/02/28 06:48:12;;;;;;;8.95;5.65;;;-1.10;99.90;;;;;;5052794;28;20033;-64
2023/02/28 06:50:38;;;;;;;10.38;5.32;;;-1.10;99.90;;;;;;5052916;28;20127;-64
2023/02/28 06:53:04;;;;;;;9.38;5.10;;;-1.10;99.90;;;;;;5052861;28;20029;-64
2023/02/28 06:55:29;;;;;;;11.23;5.63;;;-1.10;99.90;;;;;;5052349;28;20032;-64
2023/02/28 06:57:55;;;;;;;13.45;6.20;;;-1.10;99.90;;;;;;5052655;28;20060;-64
2023/02/28 07:00:20;;;;;;;8.15;5.15;;;-1.10;99.90;;;;;;5053049;28;20048;-64
2023/02/28 07:02:47;;;;;;;8.98;5.80;;;-1.10;99.90;;;;;;5056175;28;20017;-64
2023/02/28 07:05:12;;;;;;;13.57;5.65;;;-1.00;99.90;;;;;;5056392;28;20033;-64
2023/02/28 07:07:40;;;;;;;10.23;5.80;;;-0.30;99.90;;;;;;5056322;28;20056;-64
2023/02/28 07:10:06;;;;;;;7.55;5.18;;;0.10;99.90;;;;;;5056254;28;20025;-64
2023/02/28 07:12:32;;;;;;;11.07;5.30;;;0.90;99.90;;;;;;5056108;28;20368;-64
2023/02/28 07:14:57;;;;;;;9.18;5.50;;;2.00;99.90;;;;;;5055874;28;20045;-65
2023/02/28 07:17:23;;;;;;;12.60;5.53;;;2.50;99.90;;;;;;5056140;28;20017;-65
2023/02/28 07:19:48;;;;;;;8.60;5.55;;;3.40;99.90;;;;;;5056128;28;20547;-65
2023/02/28 07:22:14;;;;;;;9.10;5.45;;;4.40;99.90;;;;;;5056175;28;20033;-65
2023/02/28 07:24:39;;;;;;;10.35;5.57;;;4.90;99.90;;;;;;5055924;28;20072;-65
2023/02/28 07:27:05;;;;;;;11.35;6.10;;;6.40;99.90;;;;;;5055954;28;20025;-65
2023/02/28 07:29:30;;;;;;;11.23;5.80;;;6.80;99.90;;;;;;5055862;28;20047;-65
2023/02/28 07:31:56;;;;;;;13.00;6.10;;;7.70;99.90;;;;;;5055714;28;20021;-65
2023/02/28 07:34:22;;;;;;;12.10;6.07;;;8.50;99.90;;;;;;5055963;28;20033;-65
2023/02/28 07:36:48;;;;;;;8.18;5.68;;;8.30;99.90;;;;;;5055940;28;20115;-65
2023/02/28 07:39:13;;;;;;;8.85;5.07;;;8.20;99.90;;;;;;5055913;28;20052;-65
2023/02/28 07:41:43;;;;;;;10.32;5.22;;;8.00;99.90;;;;;;5055650;28;20110;-65
2023/02/28 07:44:10;;;;;;;7.80;5.03;;;8.30;99.90;;;;;;5055537;28;20056;-65
2023/02/28 07:46:36;;;;;;;8.65;5.25;;;7.80;99.90;;;;;;5055570;28;20489;-65
2023/02/28 07:49:02;;;;;;;7.80;4.60;;;8.70;99.90;;;;;;5055483;28;20048;-65
2023/02/28 07:51:29;;;;;;;9.77;4.80;;;8.80;99.90;;;;;;5054473;28;20502;-65
2023/02/28 07:53:54;;;;;;;6.15;4.47;;;7.90;99.90;;;;;;5055318;28;20025;-65
2023/02/28 07:56:20;;;;;;;7.63;4.45;;;8.40;99.90;;;;;;5055273;28;20032;-65
2023/02/28 07:58:46;;;;;;;11.15;4.82;;;7.00;99.90;;;;;;5055261;28;20029;-65
2023/02/28 08:01:12;;;;;;;9.10;4.53;;;8.10;99.90;;;;;;5055724;28;20087;-65
2023/02/28 08:03:39;;;;;;;7.43;5.15;;;8.60;99.10;;;;;;5055435;28;20021;-65
2023/02/28 08:06:06;;;;;;;7.47;4.07;;;8.60;98.80;;;;;;5055409;28;20479;-65
2023/02/28 08:08:32;;;;;;;6.05;4.30;;;8.90;98.40;;;;;;5055029;28;20021;-66
2023/02/28 08:11:00;;;;;;;5.60;4.22;;;9.00;97.40;;;;;;5055053;28;20029;-64
2023/02/28 08:13:27;;;;;;;6.55;4.45;;;9.80;97.10;;;;;;5053750;28;20056;-64
2023/02/28 08:15:54;;;;;;;7.65;4.18;;;9.40;96.00;;;;;;5053882;28;20071;-65
2023/02/28 08:18:20;;;;;;;11.15;4.00;;;9.60;96.00;;;;;;5053816;28;20040;-64
2023/02/28 08:20:45;;;;;;;6.03;3.90;;;8.60;97.40;;;;;;5055044;28;20029;-64
2023/02/28 08:23:11;;;;;;;8.27;4.22;;;9.40;96.00;;;;;;5054831;28;20070;-64
2023/02/28 08:25:36;;;;;;;8.50;4.50;;;9.60;96.60;;;;;;5054630;28;20092;-64
2023/02/28 08:28:02;;;;;;;6.07;3.33;;;9.90;95.10;;;;;;5054512;28;20032;-64
2023/02/28 08:30:28;;;;;;;6.18;4.10;;;10.00;94.60;;;;;;5054464;28;20036;-64
2023/02/28 08:32:55;;;;;;;6.25;3.60;;;8.40;95.30;;;;;;5054759;28;20033;-64
2023/02/28 08:35:20;;;;;;;5.40;3.53;;;8.80;96.50;;;;;;5054644;28;20470;-64
2023/02/28 08:37:48;;;;;;;5.95;3.20;;;8.50;95.10;;;;;;5053512;28;20032;-65
2023/02/28 08:40:17;;;;;;;5.85;3.72;;;7.90;96.60;;;;;;5054496;28;20499;-65
2023/02/28 08:42:44;;;;;;;5.32;3.75;;;7.90;96.10;;;;;;5054729;28;20486;-65
2023/02/28 08:45:10;;;;;;;6.55;3.95;;;7.00;97.30;;;;;;5054464;28;20031;-65
2023/02/28 08:47:36;;;;;;;5.47;3.28;;;6.70;97.00;;;;;;5054564;28;20060;-65
2023/02/28 08:50:01;;;;;;;6.88;3.00;;;7.20;97.80;;;;;;5054037;28;20060;-65
2023/02/28 08:52:27;;;;;;;6.00;3.05;;;7.40;96.80;;;;;;5054178;28;20038;-65
2023/02/28 08:54:52;;;;;;;5.93;2.97;;;8.00;95.30;;;;;;5054072;28;20376;-65
2023/02/28 08:57:18;;;;;;;5.07;2.70;;;8.80;95.10;;;;;;5054300;28;20029;-65
2023/02/28 08:59:43;;;;;;;5.05;2.72;;;7.80;95.40;;;;;;5053966;28;20059;-65
2023/02/28 09:02:12;;;;;;;6.38;2.72;;;8.20;95.30;;;;;;5054095;28;20040;-65
2023/02/28 09:04:38;;;;;;;3.72;3.00;;;8.00;95.60;;;;;;5053805;28;20025;-65
2023/02/28 09:07:03;;;;;;;5.90;2.70;;;8.20;95.80;;;;;;5053907;28;20032;-65
2023/02/28 09:09:29;;;;;;;5.85;2.83;;;8.40;94.50;;;;;;5053901;28;20033;-65
2023/02/28 09:11:56;;;;;;;3.05;2.20;;;8.60;95.20;;;;;;5053934;28;20029;-65
2023/02/28 09:14:21;;;;;;;3.75;2.45;;;9.00;93.60;;;;;;5053521;28;20049;-65
2023/02/28 09:16:47;;;;;;;4.90;2.63;;;8.20;94.20;;;;;;5053649;28;20031;-64
2023/02/28 09:19:13;;;;;;;4.53;2.92;;;8.30;94.40;;;;;;5053784;28;20047;-65
2023/02/28 09:21:38;;;;;;;3.42;2.20;;;8.70;93.70;;;;;;5053861;28;20028;-64
2023/02/28 09:24:04;;;;;;;2.78;2.22;;;7.70;94.80;;;;;;5052985;28;20021;-64
2023/02/28 09:26:30;;;;;;;4.75;2.50;;;7.80;94.80;;;;;;5053686;28;20037;-65
2023/02/28 09:28:56;;;;;;;5.68;2.90;;;8.80;93.70;;;;;;5053663;28;20021;-65
2023/02/28 09:31:24;;;;;;;2.72;2.10;;;9.10;93.00;;;;;;5053710;28;20024;-65
2023/02/28 09:33:52;;;;;;;4.57;2.28;;;9.20;92.30;;;;;;5053279;28;20032;-65
2023/02/28 09:36:18;;;;;;;3.22;1.80;;;9.30;94.60;;;;;;5052198;28;20438;-64
2023/02/28 09:38:45;;;;;;;2.83;1.77;;;9.00;90.70;;;;;;5053734;28;20029;-64
2023/02/28 09:41:29;;;;;;;3.00;2.08;;;9.10;90.40;;;;;;5053273;28;20387;-64
2023/02/28 09:43:56;;;;;;;;;;;8.90;90.50;;;;;;5053784;28;20021;-66
2023/02/28 09:46:42;;;;;;;4.75;1.95;;;8.80;90.70;;;;;;5053357;28;20370;-65
2023/02/28 09:49:16;;;;;;;3.85;2.05;;;8.90;89.80;;;;;;5053217;28;20394;-65
2023/02/28 09:51:46;;;;;;;;;;;8.80;90.10;;;;;;5053681;28;20029;-65
2023/02/28 09:54:22;;;;;;;6.03;2.40;;;9.60;90.00;;;;;;5053284;28;19908;-65
2023/02/28 09:56:56;;;;;;;4.72;2.00;;;9.20;86.20;;;;;;5052141;28;20489;-65
2023/02/28 09:59:52;;;;;;;2.78;1.73;;;8.50;90.00;;;;;;5053197;28;20501;-65
2023/02/28 10:02:45;;;;;;;3.15;2.05;;;8.20;89.40;;;;;;5052930;28;20025;-65
2023/02/28 10:05:16;;;;;;;3.00;2.05;;;7.10;91.20;;;;;;5052972;28;20119;-65
2023/02/28 10:08:10;;;;;;;6.07;2.00;;;7.20;91.40;;;;;;5052778;28;20380;-65
2023/02/28 10:10:42;;;;;;;4.00;2.05;;;7.60;91.80;;;;;;5052944;28;20115;-65
2023/02/28 10:13:35;;;;;;;2.95;2.15;;;8.10;90.20;;;;;;5053063;28;20051;-65
2023/02/28 10:16:10;;;;;;;2.50;1.63;;;8.40;90.10;;;;;;5052811;28;20482;-65
2023/02/28 10:18:52;;;;;;;2.45;1.80;;;8.70;90.50;;;;;;5046303;28;20544;-65
2023/02/28 10:21:25;;;;;;;2.78;1.85;;;8.70;89.50;;;;;;5034595;28;20493;-66
2023/02/28 10:23:59;;;;;;;2.88;2.10;;;9.40;89.40;;;;;;5038651;28;20124;-65
2023/02/28 10:26:28;;;;;;;2.42;1.88;;;9.80;85.90;;;;;;5058592;28;20025;-66
2023/02/28 10:28:54;;;;;;;2.63;1.50;;;9.80;88.50;;;;;;5037914;28;20467;-66
2023/02/28 10:31:20;;;;;;;2.67;2.00;;;9.30;86.20;;;;;;5042732;28;20116;-66
2023/02/28 10:33:47;;;;;;;2.92;1.90;;;9.20;88.10;;;;;;5052877;28;20119;-65
2023/02/28 10:36:16;;;;;;;4.65;2.20;;;9.40;87.60;;;;;;5053521;28;20391;-65
2023/02/28 10:38:42;;;;;;;3.80;2.20;;;8.90;87.10;;;;;;5049351;28;20078;-65
2023/02/28 10:41:11;;;;;;;2.63;2.20;;;9.00;90.70;;;;;;5044123;28;20025;-67
2023/02/28 10:43:38;;;;;;;6.32;2.90;;;8.10;89.60;;;;;;5048484;28;20074;-65
2023/02/28 10:46:14;;;;;;;2.80;2.38;;;7.10;91.30;;;;;;5036742;28;20026;-64
2023/02/28 10:48:44;;;;;;;3.78;2.70;;;6.80;92.20;;;;;;5039842;28;20116;-64
2023/02/28 10:51:12;;;;;;;4.30;2.60;;;6.50;93.10;;;;;;5048297;28;20041;-65
2023/02/28 10:53:54;;;;;;;4.40;2.60;;;6.70;93.50;;;;;;5038115;28;20503;-64
2023/02/28 10:56:21;;;;;;;6.60;3.50;;;6.30;94.80;;;;;;5036554;28;20033;-65
2023/02/28 11:01:52;;;;;;;3.97;2.60;;;6.30;95.60;;;;;;5107483;27;20812;-66
2023/02/28 11:04:36;;;;;;;6.50;2.90;;;5.80;96.10;;;;;;5084904;28;20478;-65
2023/02/28 11:07:19;;;;;;;6.57;3.90;;;6.00;97.30;;;;;;5105982;28;20082;-66
2023/02/28 11:09:48;;;;;;;;;;;6.40;97.60;;;;;;5105518;28;20036;-66
2023/02/28 11:12:22;;;;;;;4.90;3.50;;;5.70;98.10;;;;;;5108864;28;19904;-66
2023/02/28 11:14:55;;;;;;;5.55;3.83;;;5.50;99.60;;;;;;5107697;28;20039;-66
2023/02/28 11:17:24;;;;;;;5.80;3.70;;;5.30;99.90;;;;;;5109870;28;20482;-65
2023/02/28 11:19:52;;;;;;;5.20;3.45;;;6.50;99.40;;;;;;5108136;28;20050;-66
2023/02/28 11:22:23;;;;;;;4.35;3.50;;;6.60;98.30;;;;;;5110455;28;20062;-66
2023/02/28 11:24:53;;;;;;;9.13;4.03;;;7.40;98.80;;;;;;5105570;28;20075;-66
2023/02/28 11:27:42;;;;;;;6.00;4.15;;;7.20;97.20;;;;;;5094306;28;20064;-65
2023/02/28 11:30:42;;;;;;;7.82;3.80;;;7.20;97.00;;;;;;5106801;28;20073;-66
2023/02/28 11:33:29;;;;;;;12.85;3.80;;;6.10;98.10;;;;;;5096248;28;20126;-68
2023/02/28 11:36:02;;;;;;;6.10;2.97;;;6.00;99.90;;;;;;5095701;28;20361;-66
2023/02/28 11:38:28;;;;;;;4.43;3.22;;;6.00;98.90;;;;;;5088331;28;20060;-66
2023/02/28 11:43:57;;;;;;;4.10;2.88;;;6.00;99.70;;;;;;5108653;27;20437;-68
2023/02/28 11:46:37;;;;;;;9.30;2.92;;;5.60;99.90;;;;;;5087871;28;20048;-65
2023/02/28 11:49:18;;;;;;;3.17;2.30;;;5.60;99.90;;;;;;5078880;28;20028;-66
2023/02/28 11:51:53;;;;;;;5.38;2.03;;;5.90;99.90;;;;;;5075533;28;20036;-66
2023/02/28 11:54:49;;;;;;;3.50;2.20;;;5.80;99.90;;;;;;5082824;28;20031;-66
2023/02/28 11:57:46;;;;;;;5.22;1.98;;;5.90;99.90;;;;;;5078944;28;20016;-66
2023/02/28 12:00:37;;;;;;;4.20;2.10;;;5.80;99.90;;;;;;5089591;28;20031;-65
2023/02/28 12:03:43;;;;;;;3.60;1.92;;;5.50;99.90;;;;;;5088856;28;20093;-65
2023/02/28 12:11:53;;;;;;;3.53;2.53;;;5.10;99.90;;;;;;5065478;28;20438;-66
2023/02/28 12:14:46;;;;;;;3.72;2.67;;;5.90;99.90;;;;;;5050560;28;20107;-65
2023/02/28 12:17:52;;;;;;;5.45;1.92;;;5.70;99.90;;;;;;5066230;28;20112;-66
2023/02/28 12:20:45;;;;;;;6.78;2.97;;;5.60;99.90;;;;;;5057060;28;20558;-66
2023/02/28 12:23:30;;;;;;;4.45;2.80;;;5.80;99.90;;;;;;5058734;28;20040;-66
2023/02/28 12:26:10;;;;;;;3.63;3.00;;;5.50;99.90;;;;;;5062016;28;20081;-66
2023/02/28 12:28:42;;;;;;;7.30;3.08;;;5.50;99.90;;;;;;5055200;28;20361;-66
2023/02/28 12:31:30;;;;;;;8.68;3.47;;;5.60;99.90;;;;;;5067554;28;20021;-66
2023/02/28 12:34:02;;;;;;;7.10;3.47;;;6.00;99.90;;;;;;5051695;28;20049;-66
2023/02/28 12:36:28;;;;;;;5.30;3.40;;;6.20;99.90;;;;;;5067290;28;20487;-66
2023/02/28 12:39:00;;;;;;;6.05;3.22;;;6.60;99.90;;;;;;5062173;28;20055;-66
2023/02/28 12:41:45;;;;;;;4.00;3.20;;;6.70;99.90;;;;;;5054650;28;20463;-66
2023/02/28 12:44:23;;;;;;;4.40;3.45;;;5.90;99.90;;;;;;5069760;28;20020;-67
2023/02/28 12:46:51;;;;;;;5.57;4.00;;;5.40;99.90;;;;;;5066518;28;20024;-66
2023/02/28 12:49:25;;;;;;;7.97;3.70;;;5.10;99.90;;;;;;5067763;28;20123;-67
2023/02/28 12:51:51;;;;;;;8.00;4.00;;;5.10;99.90;;;;;;5068829;28;20060;-66
2023/02/28 12:54:43;;;;;;;5.30;3.97;;;5.10;99.90;;;;;;5069371;28;20025;-66
2023/02/28 12:57:34;;;;;;;5.13;3.95;;;5.20;99.90;;;;;;5057979;28;20025;-66
2023/02/28 13:00:11;;;;;;;6.43;3.80;;;5.60;99.90;;;;;;5066260;28;20037;-66
2023/02/28 13:03:12;;;;;;;6.55;3.92;;;5.60;99.90;;;;;;5064364;28;20550;-66
2023/02/28 13:06:05;;;;;;;7.47;4.30;;;5.60;99.90;;;;;;5069176;28;20115;-66
2023/02/28 13:08:58;;;;;;;5.28;3.67;;;5.70;99.90;;;;;;5069077;28;20035;-66
2023/02/28 13:14:18;;;;;;;7.68;3.88;;;6.60;99.90;;;;;;5110922;27;20759;-65
2023/02/28 13:17:11;;;;;;;4.82;3.15;;;6.70;99.90;;;;;;5110921;28;20028;-65
2023/02/28 13:19:55;;;;;;;5.28;3.60;;;6.30;99.90;;;;;;5110883;28;20062;-65
2023/02/28 13:22:46;;;;;;;6.38;3.70;;;5.80;99.90;;;;;;5110903;28;20024;-65
2023/02/28 13:28:55;;;;;;;7.18;3.88;;;5.50;99.90;;;;;;5111086;27;20381;-64
2023/02/28 13:31:20;;;;;;;8.07;4.40;;;5.40;99.90;;;;;;5110881;28;20028;-64